sensor_id;sensor_type;location;lat;lon;timestamp;P1;durP1;ratioP1;P2;durP2;ratioP2
32347;SDS011;18821;44.800;10.326;2023-08-17T00:00:37;12.73;;;9.88;;
32347;SDS011;18821;44.800;10.326;2023-08-17T00:03:03;12.38;;;10.73;;
32347;SDS011;18821;44.800;10.326;2023-08-17T00:05:29;14.15;;;9.70;;
32347;SDS011;18821;44.800;10.326;2023-08-17T00:07:59;12.35;;;10.18;;
32347;SDS011;18821;44.800;10.326;2023-08-17T00:10:25;12.63;;;10.73;;
32347;SDS011;18821;44.800;10.326;2023-08-17T00:12:52;15.48;;;11.57;;
32347;SDS011;18821;44.800;10.326;2023-08-17T00:15:18;14.32;;;10.68;;
32347;SDS011;18821;44.800;10.326;2023-08-17T00:17:44;11.30;;;10.20;;
32347;SDS011;18821;44.800;10.326;2023-08-17T00:20:10;12.43;;;11.23;;
32347;SDS011;18821;44.800;10.326;2023-08-17T00:22:36;12.25;;;10.95;;
32347;SDS011;18821;44.800;10.326;2023-08-17T00:25:02;13.23;;;10.75;;
32347;SDS011;18821;44.800;10.326;2023-08-17T00:27:31;14.07;;;11.18;;
32347;SDS011;18821;44.800;10.326;2023-08-17T00:29:58;13.13;;;11.73;;
32347;SDS011;18821;44.800;10.326;2023-08-17T00:32:24;14.00;;;12.43;;
32347;SDS011;18821;44.800;10.326;2023-08-17T00:34:50;14.02;;;11.35;;
32347;SDS011;18821;44.800;10.326;2023-08-17T00:37:17;13.93;;;11.98;;
32347;SDS011;18821;44.800;10.326;2023-08-17T00:39:43;15.30;;;12.02;;
32347;SDS011;18821;44.800;10.326;2023-08-17T00:42:09;12.68;;;11.32;;
32347;SDS011;18821;44.800;10.326;2023-08-17T00:44:35;14.60;;;11.15;;
32347;SDS011;18821;44.800;10.326;2023-08-17T00:47:02;12.93;;;11.00;;
32347;SDS011;18821;44.800;10.326;2023-08-17T00:49:29;12.90;;;11.55;;
32347;SDS011;18821;44.800;10.326;2023-08-17T00:51:56;13.85;;;12.45;;
32347;SDS011;18821;44.800;10.326;2023-08-17T00:54:25;13.00;;;11.65;;
32347;SDS011;18821;44.800;10.326;2023-08-17T00:56:55;13.55;;;11.13;;
32347;SDS011;18821;44.800;10.326;2023-08-17T00:59:21;14.50;;;11.80;;
32347;SDS011;18821;44.800;10.326;2023-08-17T01:01:48;13.70;;;12.15;;
32347;SDS011;18821;44.800;10.326;2023-08-17T01:04:15;13.50;;;11.48;;
32347;SDS011;18821;44.800;10.326;2023-08-17T01:06:41;14.18;;;10.57;;
32347;SDS011;18821;44.800;10.326;2023-08-17T01:09:07;13.32;;;10.02;;
32347;SDS011;18821;44.800;10.326;2023-08-17T01:11:38;10.15;;;9.15;;
32347;SDS011;18821;44.800;10.326;2023-08-17T01:17:00;10.90;;;9.70;;
32347;SDS011;18821;44.800;10.326;2023-08-17T01:19:32;14.88;;;10.10;;
32347;SDS011;18821;44.800;10.326;2023-08-17T01:22:03;11.65;;;10.45;;
32347;SDS011;18821;44.800;10.326;2023-08-17T01:24:30;11.43;;;9.80;;
32347;SDS011;18821;44.800;10.326;2023-08-17T01:26:56;13.88;;;9.80;;
32347;SDS011;18821;44.800;10.326;2023-08-17T01:29:22;10.77;;;9.38;;
32347;SDS011;18821;44.800;10.326;2023-08-17T01:34:22;15.70;;;9.88;;
32347;SDS011;18821;44.800;10.326;2023-08-17T01:36:51;11.20;;;9.73;;
32347;SDS011;18821;44.800;10.326;2023-08-17T01:39:21;12.77;;;10.00;;
32347;SDS011;18821;44.800;10.326;2023-08-17T01:42:03;13.00;;;10.10;;
32347;SDS011;18821;44.800;10.326;2023-08-17T01:44:30;12.30;;;10.48;;
32347;SDS011;18821;44.800;10.326;2023-08-17T01:46:56;14.75;;;12.75;;
32347;SDS011;18821;44.800;10.326;2023-08-17T01:49:22;14.15;;;12.00;;
32347;SDS011;18821;44.800;10.326;2023-08-17T01:51:49;14.40;;;11.52;;
32347;SDS011;18821;44.800;10.326;2023-08-17T01:54:14;15.90;;;13.07;;
32347;SDS011;18821;44.800;10.326;2023-08-17T01:56:40;17.20;;;13.35;;
32347;SDS011;18821;44.800;10.326;2023-08-17T01:59:06;17.08;;;12.85;;
32347;SDS011;18821;44.800;10.326;2023-08-17T02:01:32;14.55;;;12.77;;
32347;SDS011;18821;44.800;10.326;2023-08-17T02:03:59;15.23;;;13.52;;
32347;SDS011;18821;44.800;10.326;2023-08-17T02:06:27;17.42;;;13.93;;
32347;SDS011;18821;44.800;10.326;2023-08-17T02:08:54;19.83;;;14.75;;
32347;SDS011;18821;44.800;10.326;2023-08-17T02:11:22;17.33;;;15.40;;
32347;SDS011;18821;44.800;10.326;2023-08-17T02:13:50;18.67;;;15.20;;
32347;SDS011;18821;44.800;10.326;2023-08-17T02:16:16;20.35;;;16.58;;
32347;SDS011;18821;44.800;10.326;2023-08-17T02:18:42;18.60;;;15.77;;
32347;SDS011;18821;44.800;10.326;2023-08-17T02:21:08;21.73;;;16.65;;
32347;SDS011;18821;44.800;10.326;2023-08-17T02:23:34;22.38;;;16.88;;
32347;SDS011;18821;44.800;10.326;2023-08-17T02:26:00;21.88;;;17.52;;
32347;SDS011;18821;44.800;10.326;2023-08-17T02:28:26;20.40;;;15.88;;
32347;SDS011;18821;44.800;10.326;2023-08-17T02:30:56;20.95;;;16.38;;
32347;SDS011;18821;44.800;10.326;2023-08-17T02:33:22;25.60;;;17.95;;
32347;SDS011;18821;44.800;10.326;2023-08-17T02:35:49;28.15;;;17.67;;
32347;SDS011;18821;44.800;10.326;2023-08-17T02:38:16;25.65;;;16.63;;
32347;SDS011;18821;44.800;10.326;2023-08-17T02:40:42;19.00;;;15.23;;
32347;SDS011;18821;44.800;10.326;2023-08-17T02:43:08;20.10;;;16.25;;
32347;SDS011;18821;44.800;10.326;2023-08-17T02:45:34;26.10;;;16.02;;
32347;SDS011;18821;44.800;10.326;2023-08-17T02:48:01;17.15;;;15.05;;
32347;SDS011;18821;44.800;10.326;2023-08-17T02:50:27;19.02;;;14.63;;
32347;SDS011;18821;44.800;10.326;2023-08-17T02:52:53;16.73;;;12.93;;
32347;SDS011;18821;44.800;10.326;2023-08-17T02:55:19;15.13;;;13.27;;
32347;SDS011;18821;44.800;10.326;2023-08-17T02:57:45;16.27;;;14.05;;
32347;SDS011;18821;44.800;10.326;2023-08-17T03:00:13;17.65;;;13.43;;
32347;SDS011;18821;44.800;10.326;2023-08-17T03:02:39;16.67;;;13.20;;
32347;SDS011;18821;44.800;10.326;2023-08-17T03:05:05;14.55;;;11.80;;
32347;SDS011;18821;44.800;10.326;2023-08-17T03:07:31;16.40;;;12.15;;
32347;SDS011;18821;44.800;10.326;2023-08-17T03:09:58;15.57;;;12.73;;
32347;SDS011;18821;44.800;10.326;2023-08-17T03:12:24;14.82;;;12.35;;
32347;SDS011;18821;44.800;10.326;2023-08-17T03:14:50;20.08;;;12.05;;
32347;SDS011;18821;44.800;10.326;2023-08-17T03:17:16;15.07;;;12.38;;
32347;SDS011;18821;44.800;10.326;2023-08-17T03:19:42;14.00;;;11.98;;
32347;SDS011;18821;44.800;10.326;2023-08-17T03:22:08;14.27;;;12.40;;
32347;SDS011;18821;44.800;10.326;2023-08-17T03:24:34;14.15;;;12.43;;
32347;SDS011;18821;44.800;10.326;2023-08-17T03:27:00;17.40;;;12.68;;
32347;SDS011;18821;44.800;10.326;2023-08-17T03:29:27;19.80;;;11.75;;
32347;SDS011;18821;44.800;10.326;2023-08-17T03:31:53;12.88;;;11.00;;
32347;SDS011;18821;44.800;10.326;2023-08-17T03:34:20;15.05;;;11.27;;
32347;SDS011;18821;44.800;10.326;2023-08-17T03:36:46;13.82;;;11.35;;
32347;SDS011;18821;44.800;10.326;2023-08-17T03:39:12;12.10;;;10.82;;
32347;SDS011;18821;44.800;10.326;2023-08-17T03:41:38;13.82;;;11.30;;
32347;SDS011;18821;44.800;10.326;2023-08-17T03:44:05;16.83;;;11.73;;
32347;SDS011;18821;44.800;10.326;2023-08-17T03:46:31;17.55;;;11.20;;
32347;SDS011;18821;44.800;10.326;2023-08-17T03:48:57;12.80;;;11.60;;
32347;SDS011;18821;44.800;10.326;2023-08-17T03:51:24;14.38;;;10.05;;
32347;SDS011;18821;44.800;10.326;2023-08-17T03:53:50;12.93;;;10.10;;
32347;SDS011;18821;44.800;10.326;2023-08-17T03:56:18;12.55;;;10.40;;
32347;SDS011;18821;44.800;10.326;2023-08-17T03:58:44;14.45;;;10.63;;
32347;SDS011;18821;44.800;10.326;2023-08-17T04:01:10;15.02;;;10.43;;
32347;SDS011;18821;44.800;10.326;2023-08-17T04:03:39;16.98;;;10.93;;
32347;SDS011;18821;44.800;10.326;2023-08-17T04:06:06;13.15;;;10.55;;
32347;SDS011;18821;44.800;10.326;2023-08-17T04:08:35;18.20;;;10.60;;
32347;SDS011;18821;44.800;10.326;2023-08-17T04:11:02;12.68;;;10.38;;
32347;SDS011;18821;44.800;10.326;2023-08-17T04:13:29;11.88;;;10.68;;
32347;SDS011;18821;44.800;10.326;2023-08-17T04:15:55;11.60;;;10.40;;
32347;SDS011;18821;44.800;10.326;2023-08-17T04:18:22;12.65;;;11.35;;
32347;SDS011;18821;44.800;10.326;2023-08-17T04:20:48;13.95;;;10.65;;
32347;SDS011;18821;44.800;10.326;2023-08-17T04:23:15;12.65;;;11.35;;
32347;SDS011;18821;44.800;10.326;2023-08-17T04:25:43;13.65;;;10.23;;
32347;SDS011;18821;44.800;10.326;2023-08-17T04:28:09;16.55;;;10.77;;
32347;SDS011;18821;44.800;10.326;2023-08-17T04:30:35;11.70;;;10.50;;
32347;SDS011;18821;44.800;10.326;2023-08-17T04:33:03;12.18;;;10.98;;
32347;SDS011;18821;44.800;10.326;2023-08-17T04:35:29;15.10;;;11.63;;
32347;SDS011;18821;44.800;10.326;2023-08-17T04:37:55;17.67;;;11.70;;
32347;SDS011;18821;44.800;10.326;2023-08-17T04:40:21;12.85;;;10.25;;
32347;SDS011;18821;44.800;10.326;2023-08-17T04:42:48;18.58;;;11.63;;
32347;SDS011;18821;44.800;10.326;2023-08-17T04:45:14;17.30;;;11.73;;
32347;SDS011;18821;44.800;10.326;2023-08-17T04:47:43;16.40;;;12.73;;
32347;SDS011;18821;44.800;10.326;2023-08-17T04:50:11;14.98;;;11.27;;
32347;SDS011;18821;44.800;10.326;2023-08-17T04:52:42;12.90;;;11.52;;
32347;SDS011;18821;44.800;10.326;2023-08-17T04:55:09;14.63;;;12.02;;
32347;SDS011;18821;44.800;10.326;2023-08-17T04:57:35;15.48;;;11.02;;
32347;SDS011;18821;44.800;10.326;2023-08-17T05:00:01;11.70;;;10.60;;
32347;SDS011;18821;44.800;10.326;2023-08-17T05:02:29;13.68;;;10.63;;
32347;SDS011;18821;44.800;10.326;2023-08-17T05:04:56;15.95;;;10.50;;
32347;SDS011;18821;44.800;10.326;2023-08-17T05:07:22;12.65;;;11.23;;
32347;SDS011;18821;44.800;10.326;2023-08-17T05:09:48;14.23;;;11.32;;
32347;SDS011;18821;44.800;10.326;2023-08-17T05:12:16;13.05;;;10.80;;
32347;SDS011;18821;44.800;10.326;2023-08-17T05:14:44;13.32;;;11.18;;
32347;SDS011;18821;44.800;10.326;2023-08-17T05:17:10;18.98;;;12.07;;
32347;SDS011;18821;44.800;10.326;2023-08-17T05:19:37;18.98;;;11.60;;
32347;SDS011;18821;44.800;10.326;2023-08-17T05:22:10;14.13;;;11.68;;
32347;SDS011;18821;44.800;10.326;2023-08-17T05:24:38;12.95;;;11.55;;
32347;SDS011;18821;44.800;10.326;2023-08-17T05:27:06;42.53;;;14.98;;
32347;SDS011;18821;44.800;10.326;2023-08-17T05:29:33;18.35;;;11.65;;
32347;SDS011;18821;44.800;10.326;2023-08-17T05:31:59;16.30;;;10.95;;
32347;SDS011;18821;44.800;10.326;2023-08-17T05:34:26;12.50;;;10.00;;
32347;SDS011;18821;44.800;10.326;2023-08-17T05:36:53;11.32;;;10.15;;
32347;SDS011;18821;44.800;10.326;2023-08-17T05:39:19;12.52;;;10.65;;
32347;SDS011;18821;44.800;10.326;2023-08-17T05:41:45;14.93;;;12.60;;
32347;SDS011;18821;44.800;10.326;2023-08-17T05:44:11;17.20;;;10.40;;
32347;SDS011;18821;44.800;10.326;2023-08-17T05:46:39;11.70;;;9.68;;
32347;SDS011;18821;44.800;10.326;2023-08-17T05:49:06;12.05;;;10.57;;
32347;SDS011;18821;44.800;10.326;2023-08-17T05:51:32;15.20;;;11.18;;
32347;SDS011;18821;44.800;10.326;2023-08-17T05:53:58;14.65;;;10.65;;
32347;SDS011;18821;44.800;10.326;2023-08-17T05:56:24;14.05;;;9.82;;
32347;SDS011;18821;44.800;10.326;2023-08-17T05:58:51;16.83;;;10.32;;
32347;SDS011;18821;44.800;10.326;2023-08-17T06:01:17;12.73;;;10.40;;
32347;SDS011;18821;44.800;10.326;2023-08-17T06:03:43;18.00;;;9.52;;
32347;SDS011;18821;44.800;10.326;2023-08-17T06:06:09;13.13;;;9.18;;
32347;SDS011;18821;44.800;10.326;2023-08-17T06:08:35;12.70;;;8.73;;
32347;SDS011;18821;44.800;10.326;2023-08-17T06:11:01;14.80;;;8.65;;
32347;SDS011;18821;44.800;10.326;2023-08-17T06:13:27;15.82;;;7.88;;
32347;SDS011;18821;44.800;10.326;2023-08-17T06:15:55;13.85;;;8.45;;
32347;SDS011;18821;44.800;10.326;2023-08-17T06:18:22;13.10;;;7.88;;
32347;SDS011;18821;44.800;10.326;2023-08-17T06:20:48;9.77;;;6.28;;
32347;SDS011;18821;44.800;10.326;2023-08-17T06:23:17;9.18;;;6.63;;
32347;SDS011;18821;44.800;10.326;2023-08-17T06:25:43;7.93;;;5.97;;
32347;SDS011;18821;44.800;10.326;2023-08-17T06:28:09;12.93;;;5.70;;
32347;SDS011;18821;44.800;10.326;2023-08-17T06:30:35;8.50;;;5.82;;
32347;SDS011;18821;44.800;10.326;2023-08-17T06:33:01;8.48;;;5.43;;
32347;SDS011;18821;44.800;10.326;2023-08-17T06:35:27;11.65;;;5.38;;
32347;SDS011;18821;44.800;10.326;2023-08-17T06:37:53;7.13;;;4.70;;
32347;SDS011;18821;44.800;10.326;2023-08-17T06:40:23;6.13;;;4.38;;
32347;SDS011;18821;44.800;10.326;2023-08-17T06:42:50;6.97;;;5.28;;
32347;SDS011;18821;44.800;10.326;2023-08-17T06:45:17;5.22;;;3.28;;
32347;SDS011;18821;44.800;10.326;2023-08-17T06:47:44;9.82;;;3.75;;
32347;SDS011;18821;44.800;10.326;2023-08-17T06:50:10;5.93;;;2.90;;
32347;SDS011;18821;44.800;10.326;2023-08-17T06:52:36;4.25;;;3.38;;
32347;SDS011;18821;44.800;10.326;2023-08-17T06:55:02;6.10;;;3.38;;
32347;SDS011;18821;44.800;10.326;2023-08-17T06:57:29;7.22;;;3.55;;
32347;SDS011;18821;44.800;10.326;2023-08-17T06:59:55;6.05;;;3.75;;
32347;SDS011;18821;44.800;10.326;2023-08-17T07:02:21;9.60;;;3.60;;
32347;SDS011;18821;44.800;10.326;2023-08-17T07:04:47;4.15;;;3.40;;
32347;SDS011;18821;44.800;10.326;2023-08-17T07:07:14;5.00;;;3.45;;
32347;SDS011;18821;44.800;10.326;2023-08-17T07:09:40;6.10;;;3.05;;
32347;SDS011;18821;44.800;10.326;2023-08-17T07:12:06;6.93;;;3.90;;
32347;SDS011;18821;44.800;10.326;2023-08-17T07:14:32;16.90;;;3.20;;
32347;SDS011;18821;44.800;10.326;2023-08-17T07:16:59;7.30;;;4.07;;
32347;SDS011;18821;44.800;10.326;2023-08-17T07:19:25;7.05;;;3.13;;
32347;SDS011;18821;44.800;10.326;2023-08-17T07:21:51;4.03;;;3.40;;
32347;SDS011;18821;44.800;10.326;2023-08-17T07:24:17;4.95;;;3.05;;
32347;SDS011;18821;44.800;10.326;2023-08-17T07:26:43;6.30;;;4.28;;
32347;SDS011;18821;44.800;10.326;2023-08-17T07:29:09;20.75;;;4.85;;
32347;SDS011;18821;44.800;10.326;2023-08-17T07:31:37;6.82;;;3.60;;
32347;SDS011;18821;44.800;10.326;2023-08-17T07:34:06;6.35;;;3.53;;
32347;SDS011;18821;44.800;10.326;2023-08-17T07:36:32;4.85;;;3.40;;
32347;SDS011;18821;44.800;10.326;2023-08-17T07:38:59;9.57;;;4.05;;
32347;SDS011;18821;44.800;10.326;2023-08-17T07:41:25;9.23;;;3.38;;
32347;SDS011;18821;44.800;10.326;2023-08-17T07:43:51;5.53;;;3.80;;
32347;SDS011;18821;44.800;10.326;2023-08-17T07:46:17;7.72;;;4.30;;
32347;SDS011;18821;44.800;10.326;2023-08-17T07:48:44;13.30;;;3.65;;
32347;SDS011;18821;44.800;10.326;2023-08-17T07:51:10;6.68;;;4.15;;
32347;SDS011;18821;44.800;10.326;2023-08-17T07:53:36;6.85;;;4.10;;
32347;SDS011;18821;44.800;10.326;2023-08-17T07:56:02;6.18;;;3.83;;
32347;SDS011;18821;44.800;10.326;2023-08-17T07:58:28;6.93;;;4.10;;
32347;SDS011;18821;44.800;10.326;2023-08-17T08:00:54;6.63;;;3.63;;
32347;SDS011;18821;44.800;10.326;2023-08-17T08:03:20;5.30;;;3.72;;
32347;SDS011;18821;44.800;10.326;2023-08-17T08:05:46;7.63;;;3.90;;
32347;SDS011;18821;44.800;10.326;2023-08-17T08:08:12;9.65;;;4.00;;
32347;SDS011;18821;44.800;10.326;2023-08-17T08:10:40;6.90;;;3.78;;
32347;SDS011;18821;44.800;10.326;2023-08-17T08:13:06;4.55;;;3.75;;
32347;SDS011;18821;44.800;10.326;2023-08-17T08:15:35;11.05;;;3.85;;
32347;SDS011;18821;44.800;10.326;2023-08-17T08:18:01;3.70;;;3.08;;
32347;SDS011;18821;44.800;10.326;2023-08-17T08:20:27;3.22;;;2.92;;
32347;SDS011;18821;44.800;10.326;2023-08-17T08:22:52;3.97;;;3.15;;
32347;SDS011;18821;44.800;10.326;2023-08-17T08:25:18;4.90;;;3.25;;
32347;SDS011;18821;44.800;10.326;2023-08-17T08:27:44;6.97;;;3.80;;
32347;SDS011;18821;44.800;10.326;2023-08-17T08:30:10;4.82;;;3.15;;
32347;SDS011;18821;44.800;10.326;2023-08-17T08:32:36;5.68;;;3.50;;
32347;SDS011;18821;44.800;10.326;2023-08-17T08:35:02;5.13;;;3.55;;
32347;SDS011;18821;44.800;10.326;2023-08-17T08:37:28;4.82;;;3.63;;
32347;SDS011;18821;44.800;10.326;2023-08-17T08:39:55;4.53;;;3.50;;
32347;SDS011;18821;44.800;10.326;2023-08-17T08:42:21;3.72;;;3.30;;
32347;SDS011;18821;44.800;10.326;2023-08-17T08:44:49;12.23;;;3.67;;
32347;SDS011;18821;44.800;10.326;2023-08-17T08:47:18;9.15;;;3.65;;
32347;SDS011;18821;44.800;10.326;2023-08-17T08:52:28;4.88;;;3.50;;
32347;SDS011;18821;44.800;10.326;2023-08-17T08:54:57;6.95;;;2.92;;
32347;SDS011;18821;44.800;10.326;2023-08-17T08:57:26;8.95;;;3.80;;
32347;SDS011;18821;44.800;10.326;2023-08-17T08:59:53;8.50;;;3.35;;
32347;SDS011;18821;44.800;10.326;2023-08-17T09:02:20;7.18;;;3.20;;
32347;SDS011;18821;44.800;10.326;2023-08-17T09:04:46;5.43;;;3.55;;
32347;SDS011;18821;44.800;10.326;2023-08-17T09:07:12;8.15;;;4.47;;
32347;SDS011;18821;44.800;10.326;2023-08-17T09:09:39;9.93;;;4.57;;
32347;SDS011;18821;44.800;10.326;2023-08-17T09:12:09;6.03;;;4.45;;
32347;SDS011;18821;44.800;10.326;2023-08-17T09:14:35;5.97;;;4.00;;
32347;SDS011;18821;44.800;10.326;2023-08-17T09:17:03;11.63;;;4.50;;
32347;SDS011;18821;44.800;10.326;2023-08-17T09:19:31;6.57;;;3.78;;
32347;SDS011;18821;44.800;10.326;2023-08-17T09:21:58;5.53;;;4.13;;
32347;SDS011;18821;44.800;10.326;2023-08-17T09:24:33;11.82;;;4.93;;
32347;SDS011;18821;44.800;10.326;2023-08-17T09:27:00;9.15;;;4.20;;
32347;SDS011;18821;44.800;10.326;2023-08-17T09:29:27;11.05;;;4.80;;
32347;SDS011;18821;44.800;10.326;2023-08-17T09:32:10;5.18;;;3.75;;
32347;SDS011;18821;44.800;10.326;2023-08-17T09:40:25;10.30;;;4.38;;
32347;SDS011;18821;44.800;10.326;2023-08-17T09:43:02;9.10;;;5.55;;
32347;SDS011;18821;44.800;10.326;2023-08-17T09:45:43;14.20;;;4.63;;
32347;SDS011;18821;44.800;10.326;2023-08-17T09:48:56;10.73;;;5.93;;
32347;SDS011;18821;44.800;10.326;2023-08-17T09:51:22;11.27;;;5.30;;
32347;SDS011;18821;44.800;10.326;2023-08-17T09:53:52;7.20;;;5.18;;
32347;SDS011;18821;44.800;10.326;2023-08-17T09:56:19;49.30;;;8.57;;
32347;SDS011;18821;44.800;10.326;2023-08-17T09:58:48;15.93;;;5.60;;
32347;SDS011;18821;44.800;10.326;2023-08-17T10:01:15;8.63;;;5.50;;
32347;SDS011;18821;44.800;10.326;2023-08-17T10:03:43;8.20;;;5.68;;
32347;SDS011;18821;44.800;10.326;2023-08-17T10:06:12;20.10;;;6.65;;
32347;SDS011;18821;44.800;10.326;2023-08-17T10:08:45;11.27;;;7.03;;
32347;SDS011;18821;44.800;10.326;2023-08-17T10:11:14;7.53;;;5.57;;
32347;SDS011;18821;44.800;10.326;2023-08-17T10:16:46;7.88;;;5.47;;
32347;SDS011;18821;44.800;10.326;2023-08-17T10:19:17;15.57;;;6.53;;
32347;SDS011;18821;44.800;10.326;2023-08-17T10:21:52;7.78;;;6.63;;
32347;SDS011;18821;44.800;10.326;2023-08-17T10:24:26;19.23;;;6.38;;
32347;SDS011;18821;44.800;10.326;2023-08-17T10:26:52;7.15;;;6.25;;
32347;SDS011;18821;44.800;10.326;2023-08-17T10:29:19;12.25;;;6.95;;
32347;SDS011;18821;44.800;10.326;2023-08-17T10:31:47;12.35;;;6.85;;
32347;SDS011;18821;44.800;10.326;2023-08-17T10:34:14;8.55;;;5.75;;
32347;SDS011;18821;44.800;10.326;2023-08-17T10:36:41;12.98;;;8.05;;
32347;SDS011;18821;44.800;10.326;2023-08-17T10:41:47;12.13;;;6.93;;
32347;SDS011;18821;44.800;10.326;2023-08-17T10:44:14;9.20;;;6.60;;
32347;SDS011;18821;44.800;10.326;2023-08-17T10:46:40;9.82;;;6.93;;
32347;SDS011;18821;44.800;10.326;2023-08-17T10:49:23;17.10;;;7.50;;
32347;SDS011;18821;44.800;10.326;2023-08-17T10:52:00;10.80;;;7.30;;
32347;SDS011;18821;44.800;10.326;2023-08-17T10:54:36;12.00;;;6.85;;
32347;SDS011;18821;44.800;10.326;2023-08-17T11:00:04;8.65;;;7.65;;
32347;SDS011;18821;44.800;10.326;2023-08-17T11:02:32;11.75;;;7.70;;
32347;SDS011;18821;44.800;10.326;2023-08-17T11:04:59;8.27;;;7.10;;
32347;SDS011;18821;44.800;10.326;2023-08-17T11:07:26;8.18;;;7.18;;
32347;SDS011;18821;44.800;10.326;2023-08-17T11:10:10;15.52;;;7.60;;
32347;SDS011;18821;44.800;10.326;2023-08-17T11:12:45;9.82;;;6.68;;
32347;SDS011;18821;44.800;10.326;2023-08-17T11:15:11;14.38;;;7.93;;
32347;SDS011;18821;44.800;10.326;2023-08-17T11:17:38;10.40;;;6.93;;
32347;SDS011;18821;44.800;10.326;2023-08-17T11:20:04;10.95;;;7.35;;
32347;SDS011;18821;44.800;10.326;2023-08-17T11:22:30;8.30;;;7.18;;
32347;SDS011;18821;44.800;10.326;2023-08-17T11:24:57;9.20;;;7.88;;
32347;SDS011;18821;44.800;10.326;2023-08-17T11:27:23;9.57;;;6.13;;
32347;SDS011;18821;44.800;10.326;2023-08-17T11:29:50;15.15;;;7.50;;
32347;SDS011;18821;44.800;10.326;2023-08-17T11:32:17;11.75;;;7.82;;
32347;SDS011;18821;44.800;10.326;2023-08-17T11:34:43;9.77;;;7.40;;
32347;SDS011;18821;44.800;10.326;2023-08-17T11:37:12;11.13;;;7.97;;
32347;SDS011;18821;44.800;10.326;2023-08-17T11:39:39;10.57;;;7.18;;
32347;SDS011;18821;44.800;10.326;2023-08-17T11:42:06;12.85;;;7.90;;
32347;SDS011;18821;44.800;10.326;2023-08-17T11:44:32;11.23;;;7.65;;
32347;SDS011;18821;44.800;10.326;2023-08-17T11:46:59;12.15;;;7.95;;
32347;SDS011;18821;44.800;10.326;2023-08-17T11:49:25;9.80;;;7.45;;
32347;SDS011;18821;44.800;10.326;2023-08-17T11:51:51;16.35;;;7.20;;
32347;SDS011;18821;44.800;10.326;2023-08-17T11:54:17;10.00;;;7.35;;
32347;SDS011;18821;44.800;10.326;2023-08-17T11:56:43;14.52;;;8.40;;
32347;SDS011;18821;44.800;10.326;2023-08-17T11:59:10;10.18;;;7.25;;
32347;SDS011;18821;44.800;10.326;2023-08-17T12:01:39;9.98;;;7.65;;
32347;SDS011;18821;44.800;10.326;2023-08-17T12:04:06;11.05;;;8.32;;
32347;SDS011;18821;44.800;10.326;2023-08-17T12:06:32;11.23;;;7.43;;
32347;SDS011;18821;44.800;10.326;2023-08-17T12:08:58;11.70;;;7.50;;
32347;SDS011;18821;44.800;10.326;2023-08-17T12:11:25;11.07;;;7.72;;
32347;SDS011;18821;44.800;10.326;2023-08-17T12:13:51;8.23;;;6.93;;
32347;SDS011;18821;44.800;10.326;2023-08-17T12:16:18;9.32;;;6.75;;
32347;SDS011;18821;44.800;10.326;2023-08-17T12:18:45;9.13;;;7.68;;
32347;SDS011;18821;44.800;10.326;2023-08-17T12:21:13;8.05;;;7.25;;
32347;SDS011;18821;44.800;10.326;2023-08-17T12:23:40;11.55;;;7.60;;
32347;SDS011;18821;44.800;10.326;2023-08-17T12:26:07;8.27;;;7.13;;
32347;SDS011;18821;44.800;10.326;2023-08-17T12:28:33;14.23;;;8.10;;
32347;SDS011;18821;44.800;10.326;2023-08-17T12:31:00;8.20;;;7.20;;
32347;SDS011;18821;44.800;10.326;2023-08-17T12:33:27;11.13;;;7.50;;
32347;SDS011;18821;44.800;10.326;2023-08-17T12:35:54;8.60;;;7.10;;
32347;SDS011;18821;44.800;10.326;2023-08-17T12:38:21;12.60;;;7.20;;
32347;SDS011;18821;44.800;10.326;2023-08-17T12:40:49;11.63;;;7.80;;
32347;SDS011;18821;44.800;10.326;2023-08-17T12:43:15;8.65;;;7.85;;
32347;SDS011;18821;44.800;10.326;2023-08-17T12:45:41;9.82;;;6.68;;
32347;SDS011;18821;44.800;10.326;2023-08-17T12:48:07;8.95;;;6.93;;
32347;SDS011;18821;44.800;10.326;2023-08-17T12:50:33;8.88;;;6.78;;
32347;SDS011;18821;44.800;10.326;2023-08-17T12:53:00;8.50;;;6.55;;
32347;SDS011;18821;44.800;10.326;2023-08-17T12:55:26;9.23;;;8.18;;
32347;SDS011;18821;44.800;10.326;2023-08-17T12:57:53;8.93;;;7.32;;
32347;SDS011;18821;44.800;10.326;2023-08-17T13:00:19;9.75;;;7.60;;
32347;SDS011;18821;44.800;10.326;2023-08-17T13:02:45;12.15;;;7.18;;
32347;SDS011;18821;44.800;10.326;2023-08-17T13:05:14;10.30;;;7.32;;
32347;SDS011;18821;44.800;10.326;2023-08-17T13:11:54;10.90;;;8.13;;
32347;SDS011;18821;44.800;10.326;2023-08-17T13:15:10;8.80;;;7.70;;
32347;SDS011;18821;44.800;10.326;2023-08-17T13:18:07;8.60;;;7.25;;
32347;SDS011;18821;44.800;10.326;2023-08-17T13:20:33;17.63;;;7.80;;
32347;SDS011;18821;44.800;10.326;2023-08-17T13:23:01;9.75;;;7.55;;
32347;SDS011;18821;44.800;10.326;2023-08-17T13:25:27;10.10;;;7.13;;
32347;SDS011;18821;44.800;10.326;2023-08-17T13:27:53;13.35;;;7.20;;
32347;SDS011;18821;44.800;10.326;2023-08-17T13:30:20;8.35;;;7.45;;
32347;SDS011;18821;44.800;10.326;2023-08-17T13:32:46;12.00;;;7.32;;
32347;SDS011;18821;44.800;10.326;2023-08-17T13:35:13;9.20;;;7.43;;
32347;SDS011;18821;44.800;10.326;2023-08-17T13:37:40;8.77;;;6.70;;
32347;SDS011;18821;44.800;10.326;2023-08-17T13:40:06;9.13;;;7.20;;
32347;SDS011;18821;44.800;10.326;2023-08-17T13:42:33;12.32;;;7.72;;
32347;SDS011;18821;44.800;10.326;2023-08-17T13:45:08;9.25;;;6.82;;
32347;SDS011;18821;44.800;10.326;2023-08-17T13:48:53;8.80;;;7.00;;
32347;SDS011;18821;44.800;10.326;2023-08-17T13:52:07;9.75;;;7.80;;
32347;SDS011;18821;44.800;10.326;2023-08-17T13:54:33;12.73;;;7.80;;
32347;SDS011;18821;44.800;10.326;2023-08-17T13:57:00;9.27;;;7.07;;
32347;SDS011;18821;44.800;10.326;2023-08-17T13:59:26;15.70;;;7.20;;
32347;SDS011;18821;44.800;10.326;2023-08-17T14:01:52;10.02;;;6.72;;
32347;SDS011;18821;44.800;10.326;2023-08-17T14:04:21;12.88;;;7.10;;
32347;SDS011;18821;44.800;10.326;2023-08-17T14:06:47;9.68;;;7.50;;
32347;SDS011;18821;44.800;10.326;2023-08-17T14:09:13;10.68;;;6.72;;
32347;SDS011;18821;44.800;10.326;2023-08-17T14:11:40;10.13;;;6.82;;
32347;SDS011;18821;44.800;10.326;2023-08-17T14:14:09;7.95;;;6.57;;
32347;SDS011;18821;44.800;10.326;2023-08-17T14:16:35;10.95;;;7.32;;
32347;SDS011;18821;44.800;10.326;2023-08-17T14:19:03;11.95;;;6.82;;
32347;SDS011;18821;44.800;10.326;2023-08-17T14:21:29;11.90;;;7.38;;
32347;SDS011;18821;44.800;10.326;2023-08-17T14:23:58;11.43;;;6.90;;
32347;SDS011;18821;44.800;10.326;2023-08-17T14:26:25;11.90;;;6.50;;
32347;SDS011;18821;44.800;10.326;2023-08-17T14:28:51;7.93;;;6.22;;
32347;SDS011;18821;44.800;10.326;2023-08-17T14:31:17;17.80;;;7.78;;
32347;SDS011;18821;44.800;10.326;2023-08-17T14:33:44;12.20;;;6.95;;
32347;SDS011;18821;44.800;10.326;2023-08-17T14:36:13;12.70;;;7.05;;
32347;SDS011;18821;44.800;10.326;2023-08-17T14:38:39;13.00;;;7.47;;
32347;SDS011;18821;44.800;10.326;2023-08-17T14:41:06;9.38;;;6.57;;
32347;SDS011;18821;44.800;10.326;2023-08-17T14:43:33;15.38;;;7.40;;
32347;SDS011;18821;44.800;10.326;2023-08-17T14:45:59;14.25;;;7.28;;
32347;SDS011;18821;44.800;10.326;2023-08-17T14:48:25;12.60;;;6.68;;
32347;SDS011;18821;44.800;10.326;2023-08-17T14:50:51;11.75;;;8.38;;